sensor_id;sensor_type;location;lat;lon;timestamp;pressure;altitude;pressure_sealevel;temperature;humidity
75497;BME280;64074;47.540;19.072;2023-07-09T00:01:43;100980.00;;;21.50;55.44
75497;BME280;64074;47.540;19.072;2023-07-09T00:04:46;100974.00;;;21.61;55.03
75497;BME280;64074;47.540;19.072;2023-07-09T00:07:50;100975.25;;;21.79;54.71
75497;BME280;64074;47.540;19.072;2023-07-09T00:10:57;100981.13;;;21.77;55.05
75497;BME280;64074;47.540;19.072;2023-07-09T00:14:00;100975.50;;;21.74;55.29
75497;BME280;64074;47.540;19.072;2023-07-09T00:17:09;100991.00;;;21.78;55.02
75497;BME280;64074;47.540;19.072;2023-07-09T00:20:16;100976.41;;;21.78;54.68
75497;BME280;64074;47.540;19.072;2023-07-09T00:23:20;100986.03;;;21.84;54.24
75497;BME280;64074;47.540;19.072;2023-07-09T00:26:23;100989.53;;;21.53;53.75
75497;BME280;64074;47.540;19.072;2023-07-09T00:29:27;100983.34;;;21.28;54.71
75497;BME280;64074;47.540;19.072;2023-07-09T00:32:30;100974.13;;;21.36;54.74
75497;BME280;64074;47.540;19.072;2023-07-09T00:35:33;100972.69;;;21.14;55.39
75497;BME280;64074;47.540;19.072;2023-07-09T00:38:36;100988.06;;;20.87;56.67
75497;BME280;64074;47.540;19.072;2023-07-09T00:41:42;100975.00;;;20.72;56.81
75497;BME280;64074;47.540;19.072;2023-07-09T00:44:46;100987.91;;;21.08;56.25
75497;BME280;64074;47.540;19.072;2023-07-09T00:48:01;100986.03;;;21.12;56.06
75497;BME280;64074;47.540;19.072;2023-07-09T00:51:13;100986.97;;;21.04;56.22
75497;BME280;64074;47.540;19.072;2023-07-09T00:54:28;100974.66;;;20.86;56.47
75497;BME280;64074;47.540;19.072;2023-07-09T00:57:34;100983.06;;;20.65;57.41
75497;BME280;64074;47.540;19.072;2023-07-09T01:00:50;100976.41;;;20.54;58.13
75497;BME280;64074;47.540;19.072;2023-07-09T01:03:57;100978.81;;;20.55;58.02
75497;BME280;64074;47.540;19.072;2023-07-09T01:07:01;100980.44;;;20.56;58.11
75497;BME280;64074;47.540;19.072;2023-07-09T01:10:05;100968.84;;;20.63;57.82
75497;BME280;64074;47.540;19.072;2023-07-09T01:13:12;100970.09;;;20.53;58.25
75497;BME280;64074;47.540;19.072;2023-07-09T01:16:17;100983.44;;;20.51;58.77
75497;BME280;64074;47.540;19.072;2023-07-09T01:19:25;100975.97;;;20.52;58.87
75497;BME280;64074;47.540;19.072;2023-07-09T01:22:29;100979.97;;;20.54;59.05
75497;BME280;64074;47.540;19.072;2023-07-09T01:25:33;100980.66;;;20.51;59.22
75497;BME280;64074;47.540;19.072;2023-07-09T01:28:37;100991.22;;;20.37;59.88
75497;BME280;64074;47.540;19.072;2023-07-09T01:31:40;100984.81;;;20.45;59.58
75497;BME280;64074;47.540;19.072;2023-07-09T01:34:43;100989.50;;;20.57;59.24
75497;BME280;64074;47.540;19.072;2023-07-09T01:37:47;100992.13;;;20.29;59.33
75497;BME280;64074;47.540;19.072;2023-07-09T01:40:52;100989.38;;;20.53;58.69
75497;BME280;64074;47.540;19.072;2023-07-09T01:44:02;100978.03;;;20.55;58.13
75497;BME280;64074;47.540;19.072;2023-07-09T01:47:05;100992.59;;;20.55;58.09
75497;BME280;64074;47.540;19.072;2023-07-09T01:50:10;101001.66;;;20.68;58.02
75497;BME280;64074;47.540;19.072;2023-07-09T01:53:23;101001.00;;;20.47;58.58
75497;BME280;64074;47.540;19.072;2023-07-09T01:56:28;101010.06;;;20.35;59.40
75497;BME280;64074;47.540;19.072;2023-07-09T01:59:32;101005.34;;;20.23;59.84
75497;BME280;64074;47.540;19.072;2023-07-09T02:02:35;101009.69;;;20.24;59.99
75497;BME280;64074;47.540;19.072;2023-07-09T02:05:38;101003.28;;;20.20;60.29
75497;BME280;64074;47.540;19.072;2023-07-09T02:08:43;100999.34;;;19.97;60.71
75497;BME280;64074;47.540;19.072;2023-07-09T02:11:46;100995.78;;;19.84;60.79
75497;BME280;64074;47.540;19.072;2023-07-09T02:14:49;101010.13;;;19.90;60.61
75497;BME280;64074;47.540;19.072;2023-07-09T02:17:53;101004.28;;;20.04;60.09
75497;BME280;64074;47.540;19.072;2023-07-09T02:20:56;101001.88;;;20.02;60.11
75497;BME280;64074;47.540;19.072;2023-07-09T02:23:59;101003.47;;;20.03;59.87
75497;BME280;64074;47.540;19.072;2023-07-09T02:27:05;101006.22;;;19.91;59.85
75497;BME280;64074;47.540;19.072;2023-07-09T02:30:09;101008.66;;;20.17;59.53
75497;BME280;64074;47.540;19.072;2023-07-09T02:33:13;101019.09;;;20.11;59.56
75497;BME280;64074;47.540;19.072;2023-07-09T02:36:16;101003.50;;;20.15;59.72
75497;BME280;64074;47.540;19.072;2023-07-09T02:39:20;100997.06;;;20.23;59.23
75497;BME280;64074;47.540;19.072;2023-07-09T02:42:23;101003.38;;;20.24;59.44
75497;BME280;64074;47.540;19.072;2023-07-09T02:45:26;100998.69;;;20.12;59.44
75497;BME280;64074;47.540;19.072;2023-07-09T02:48:31;100997.19;;;20.15;59.38
75497;BME280;64074;47.540;19.072;2023-07-09T02:51:34;101010.63;;;20.16;58.65
75497;BME280;64074;47.540;19.072;2023-07-09T02:54:38;101017.38;;;20.19;58.75
75497;BME280;64074;47.540;19.072;2023-07-09T02:57:41;101016.94;;;20.17;58.68
75497;BME280;64074;47.540;19.072;2023-07-09T03:00:44;101005.34;;;20.11;58.71
75497;BME280;64074;47.540;19.072;2023-07-09T03:03:55;101014.94;;;20.05;59.45
75497;BME280;64074;47.540;19.072;2023-07-09T03:06:59;101016.47;;;20.15;59.27
75497;BME280;64074;47.540;19.072;2023-07-09T03:10:03;101009.34;;;20.14;59.36
75497;BME280;64074;47.540;19.072;2023-07-09T03:13:06;101032.63;;;20.16;58.93
75497;BME280;64074;47.540;19.072;2023-07-09T03:16:10;101022.16;;;19.85;57.35
75497;BME280;64074;47.540;19.072;2023-07-09T03:19:13;101025.38;;;19.87;57.38
75497;BME280;64074;47.540;19.072;2023-07-09T03:22:16;101029.69;;;19.64;58.24
75497;BME280;64074;47.540;19.072;2023-07-09T03:25:19;101021.16;;;19.57;58.57
75497;BME280;64074;47.540;19.072;2023-07-09T03:28:23;101025.28;;;19.96;57.48
75497;BME280;64074;47.540;19.072;2023-07-09T03:31:26;101026.31;;;20.04;57.32
75497;BME280;64074;47.540;19.072;2023-07-09T03:34:30;101030.47;;;20.10;57.28
75497;BME280;64074;47.540;19.072;2023-07-09T03:37:33;101039.25;;;20.03;57.50
75497;BME280;64074;47.540;19.072;2023-07-09T03:40:37;101038.63;;;19.73;58.48
75497;BME280;64074;47.540;19.072;2023-07-09T03:43:40;101040.03;;;19.79;58.51
75497;BME280;64074;47.540;19.072;2023-07-09T03:46:43;101039.25;;;20.03;58.22
75497;BME280;64074;47.540;19.072;2023-07-09T03:49:46;101037.66;;;20.02;57.95
75497;BME280;64074;47.540;19.072;2023-07-09T03:52:50;101034.47;;;20.12;57.66
75497;BME280;64074;47.540;19.072;2023-07-09T03:55:55;101038.00;;;20.01;57.91
75497;BME280;64074;47.540;19.072;2023-07-09T03:58:58;101028.66;;;19.81;58.02
75497;BME280;64074;47.540;19.072;2023-07-09T04:02:01;101022.41;;;19.92;57.88
75497;BME280;64074;47.540;19.072;2023-07-09T04:05:06;101027.66;;;19.85;58.34
75497;BME280;64074;47.540;19.072;2023-07-09T04:08:11;101033.56;;;20.08;58.12
75497;BME280;64074;47.540;19.072;2023-07-09T04:11:14;101035.16;;;20.21;57.37
75497;BME280;64074;47.540;19.072;2023-07-09T04:14:17;101034.13;;;20.14;57.54
75497;BME280;64074;47.540;19.072;2023-07-09T04:17:21;101033.22;;;20.10;57.59
75497;BME280;64074;47.540;19.072;2023-07-09T04:20:26;101047.00;;;20.34;57.61
75497;BME280;64074;47.540;19.072;2023-07-09T04:23:30;101038.66;;;20.43;57.48
75497;BME280;64074;47.540;19.072;2023-07-09T04:26:33;101044.84;;;20.64;57.02
75497;BME280;64074;47.540;19.072;2023-07-09T04:29:37;101045.66;;;20.40;57.57
75497;BME280;64074;47.540;19.072;2023-07-09T04:32:42;101038.25;;;20.32;57.78
75497;BME280;64074;47.540;19.072;2023-07-09T04:35:47;101033.34;;;20.38;57.38
75497;BME280;64074;47.540;19.072;2023-07-09T04:38:50;101044.03;;;20.51;57.49
75497;BME280;64074;47.540;19.072;2023-07-09T04:41:53;101040.38;;;20.60;57.64
75497;BME280;64074;47.540;19.072;2023-07-09T04:44:57;101045.88;;;20.60;58.16
75497;BME280;64074;47.540;19.072;2023-07-09T04:47:59;101054.00;;;20.56;58.39
75497;BME280;64074;47.540;19.072;2023-07-09T04:51:03;101049.66;;;20.67;58.75
75497;BME280;64074;47.540;19.072;2023-07-09T04:54:06;101046.78;;;20.64;59.25
75497;BME280;64074;47.540;19.072;2023-07-09T04:57:09;101042.06;;;20.76;59.16
75497;BME280;64074;47.540;19.072;2023-07-09T05:00:13;101028.03;;;20.94;59.02
75497;BME280;64074;47.540;19.072;2023-07-09T05:03:18;101041.75;;;21.06;59.15
75497;BME280;64074;47.540;19.072;2023-07-09T05:06:22;101044.19;;;21.07;59.33
75497;BME280;64074;47.540;19.072;2023-07-09T05:09:25;101055.34;;;21.11;58.53
75497;BME280;64074;47.540;19.072;2023-07-09T05:12:28;101050.59;;;21.24;57.88
75497;BME280;64074;47.540;19.072;2023-07-09T05:15:31;101048.28;;;21.26;57.84
75497;BME280;64074;47.540;19.072;2023-07-09T05:18:34;101054.47;;;21.23;57.71
75497;BME280;64074;47.540;19.072;2023-07-09T05:21:37;101046.09;;;21.19;58.39
75497;BME280;64074;47.540;19.072;2023-07-09T05:24:40;101047.91;;;21.39;57.50
75497;BME280;64074;47.540;19.072;2023-07-09T05:27:44;101046.25;;;21.50;57.48
75497;BME280;64074;47.540;19.072;2023-07-09T05:30:47;101042.13;;;21.44;58.01
75497;BME280;64074;47.540;19.072;2023-07-09T05:33:51;101046.19;;;21.63;57.31
75497;BME280;64074;47.540;19.072;2023-07-09T05:36:57;101047.25;;;21.58;57.02
75497;BME280;64074;47.540;19.072;2023-07-09T05:40:04;101048.34;;;21.69;56.99
75497;BME280;64074;47.540;19.072;2023-07-09T05:43:08;101042.66;;;21.78;56.32
75497;BME280;64074;47.540;19.072;2023-07-09T05:46:13;101048.91;;;21.91;56.07
75497;BME280;64074;47.540;19.072;2023-07-09T05:49:16;101051.94;;;22.01;55.84
75497;BME280;64074;47.540;19.072;2023-07-09T05:52:21;101049.94;;;22.14;55.58
75497;BME280;64074;47.540;19.072;2023-07-09T05:55:24;101039.44;;;22.35;54.63
75497;BME280;64074;47.540;19.072;2023-07-09T05:58:28;101049.47;;;22.44;54.20
75497;BME280;64074;47.540;19.072;2023-07-09T06:01:31;101041.09;;;22.56;53.83
75497;BME280;64074;47.540;19.072;2023-07-09T06:04:34;101044.09;;;22.66;53.88
75497;BME280;64074;47.540;19.072;2023-07-09T06:07:41;101042.81;;;22.80;53.60
75497;BME280;64074;47.540;19.072;2023-07-09T06:10:53;101042.66;;;22.88;52.32
75497;BME280;64074;47.540;19.072;2023-07-09T06:13:57;101035.31;;;22.96;50.51
75497;BME280;64074;47.540;19.072;2023-07-09T06:17:02;101038.75;;;23.28;49.11
75497;BME280;64074;47.540;19.072;2023-07-09T06:20:06;101041.50;;;23.47;49.75
75497;BME280;64074;47.540;19.072;2023-07-09T06:23:10;101037.53;;;23.64;50.16
75497;BME280;64074;47.540;19.072;2023-07-09T06:26:13;101053.31;;;23.83;49.31
75497;BME280;64074;47.540;19.072;2023-07-09T06:29:16;101039.69;;;23.97;49.20
75497;BME280;64074;47.540;19.072;2023-07-09T06:32:19;101043.16;;;24.13;49.04
75497;BME280;64074;47.540;19.072;2023-07-09T06:35:23;101049.22;;;24.22;47.60
75497;BME280;64074;47.540;19.072;2023-07-09T06:38:28;101039.06;;;24.53;47.19
75497;BME280;64074;47.540;19.072;2023-07-09T06:41:31;101033.78;;;24.71;47.39
75497;BME280;64074;47.540;19.072;2023-07-09T06:44:44;101040.34;;;24.85;44.34
75497;BME280;64074;47.540;19.072;2023-07-09T06:47:47;101030.78;;;25.09;43.84
75497;BME280;64074;47.540;19.072;2023-07-09T06:50:53;101032.22;;;25.30;43.19
75497;BME280;64074;47.540;19.072;2023-07-09T06:53:57;101031.28;;;25.52;43.60
75497;BME280;64074;47.540;19.072;2023-07-09T06:57:00;101028.22;;;25.61;43.53
75497;BME280;64074;47.540;19.072;2023-07-09T07:00:04;101039.53;;;25.79;42.71
75497;BME280;64074;47.540;19.072;2023-07-09T07:03:09;101035.66;;;25.87;42.07
75497;BME280;64074;47.540;19.072;2023-07-09T07:06:12;101040.19;;;26.05;41.38
75497;BME280;64074;47.540;19.072;2023-07-09T07:09:16;101039.13;;;26.21;40.67
75497;BME280;64074;47.540;19.072;2023-07-09T07:12:25;101041.34;;;26.49;41.66
75497;BME280;64074;47.540;19.072;2023-07-09T07:15:29;101031.91;;;26.60;41.58
75497;BME280;64074;47.540;19.072;2023-07-09T07:18:32;101037.75;;;26.48;41.03
75497;BME280;64074;47.540;19.072;2023-07-09T07:21:35;101047.88;;;26.74;40.68
75497;BME280;64074;47.540;19.072;2023-07-09T07:24:39;101037.63;;;26.85;40.85
75497;BME280;64074;47.540;19.072;2023-07-09T07:27:42;101029.75;;;27.02;40.35
75497;BME280;64074;47.540;19.072;2023-07-09T07:30:45;101039.00;;;27.16;39.85
75497;BME280;64074;47.540;19.072;2023-07-09T07:33:48;101034.28;;;27.27;38.87
75497;BME280;64074;47.540;19.072;2023-07-09T07:36:51;101038.28;;;27.41;39.01
75497;BME280;64074;47.540;19.072;2023-07-09T07:39:55;101038.69;;;27.50;38.17
75497;BME280;64074;47.540;19.072;2023-07-09T07:42:59;101032.38;;;27.60;37.68
75497;BME280;64074;47.540;19.072;2023-07-09T07:46:02;101033.25;;;27.78;38.55
75497;BME280;64074;47.540;19.072;2023-07-09T07:49:07;101035.25;;;27.81;37.61
75497;BME280;64074;47.540;19.072;2023-07-09T07:52:10;101031.66;;;27.84;37.23
75497;BME280;64074;47.540;19.072;2023-07-09T07:55:13;101030.06;;;27.87;37.84
75497;BME280;64074;47.540;19.072;2023-07-09T07:58:22;101034.44;;;27.81;37.03
75497;BME280;64074;47.540;19.072;2023-07-09T08:01:25;101038.03;;;27.92;35.87
75497;BME280;64074;47.540;19.072;2023-07-09T08:04:29;101032.06;;;28.04;36.70
75497;BME280;64074;47.540;19.072;2023-07-09T08:07:32;101042.41;;;28.14;36.03
75497;BME280;64074;47.540;19.072;2023-07-09T08:10:35;101040.88;;;28.31;36.42
75497;BME280;64074;47.540;19.072;2023-07-09T08:13:39;101028.50;;;28.25;34.77
75497;BME280;64074;47.540;19.072;2023-07-09T08:16:42;101028.91;;;28.52;33.47
75497;BME280;64074;47.540;19.072;2023-07-09T08:19:49;101034.06;;;28.46;32.16
75497;BME280;64074;47.540;19.072;2023-07-09T08:22:54;101039.66;;;28.57;32.21
75497;BME280;64074;47.540;19.072;2023-07-09T08:25:59;101038.41;;;28.69;32.33
75497;BME280;64074;47.540;19.072;2023-07-09T08:29:05;101022.88;;;28.64;32.54
75497;BME280;64074;47.540;19.072;2023-07-09T08:32:09;101044.81;;;28.62;32.80
75497;BME280;64074;47.540;19.072;2023-07-09T08:35:14;101033.59;;;28.91;31.40
75497;BME280;64074;47.540;19.072;2023-07-09T08:38:37;101034.03;;;28.78;30.57
75497;BME280;64074;47.540;19.072;2023-07-09T08:41:48;101032.78;;;28.94;30.94
75497;BME280;64074;47.540;19.072;2023-07-09T08:45:12;101032.38;;;28.95;31.81
75497;BME280;64074;47.540;19.072;2023-07-09T08:48:27;101026.34;;;29.11;32.11
75497;BME280;64074;47.540;19.072;2023-07-09T08:51:35;101038.38;;;29.01;31.39
75497;BME280;64074;47.540;19.072;2023-07-09T08:54:41;101015.97;;;29.15;31.25
75497;BME280;64074;47.540;19.072;2023-07-09T08:57:49;101026.25;;;29.32;30.56
75497;BME280;64074;47.540;19.072;2023-07-09T09:01:00;101028.56;;;29.55;31.26
75497;BME280;64074;47.540;19.072;2023-07-09T09:04:15;101024.19;;;29.47;29.70
75497;BME280;64074;47.540;19.072;2023-07-09T09:10:47;101021.25;;;29.72;30.38
75497;BME280;64074;47.540;19.072;2023-07-09T09:13:55;101023.28;;;29.68;30.07
75497;BME280;64074;47.540;19.072;2023-07-09T09:16:59;101019.31;;;29.65;30.03
75497;BME280;64074;47.540;19.072;2023-07-09T09:20:08;101026.56;;;29.56;30.38
75497;BME280;64074;47.540;19.072;2023-07-09T09:23:14;101025.69;;;29.66;29.89
75497;BME280;64074;47.540;19.072;2023-07-09T09:26:23;101027.69;;;29.65;28.52
75497;BME280;64074;47.540;19.072;2023-07-09T09:29:26;101034.59;;;29.47;28.86
75497;BME280;64074;47.540;19.072;2023-07-09T09:32:37;101019.63;;;29.78;27.48
75497;BME280;64074;47.540;19.072;2023-07-09T09:35:43;101019.13;;;29.90;27.58
75497;BME280;64074;47.540;19.072;2023-07-09T09:38:46;101019.03;;;30.08;27.69
75497;BME280;64074;47.540;19.072;2023-07-09T09:41:58;101016.69;;;29.96;28.56
75497;BME280;64074;47.540;19.072;2023-07-09T09:45:01;101029.00;;;30.09;28.34
75497;BME280;64074;47.540;19.072;2023-07-09T09:48:34;101018.97;;;30.15;27.87
75497;BME280;64074;47.540;19.072;2023-07-09T09:51:41;101012.84;;;30.31;27.50
75497;BME280;64074;47.540;19.072;2023-07-09T09:55:02;101013.28;;;30.22;26.90
75497;BME280;64074;47.540;19.072;2023-07-09T09:58:14;101010.63;;;30.53;27.26
75497;BME280;64074;47.540;19.072;2023-07-09T10:01:18;101001.78;;;30.58;26.69
75497;BME280;64074;47.540;19.072;2023-07-09T10:04:21;101008.16;;;30.58;27.55
75497;BME280;64074;47.540;19.072;2023-07-09T10:07:34;101002.66;;;30.48;27.39
75497;BME280;64074;47.540;19.072;2023-07-09T10:10:39;101007.56;;;30.37;26.77
75497;BME280;64074;47.540;19.072;2023-07-09T10:13:46;101009.38;;;30.57;26.58
75497;BME280;64074;47.540;19.072;2023-07-09T10:16:56;101016.00;;;30.33;26.63
75497;BME280;64074;47.540;19.072;2023-07-09T10:23:40;101011.69;;;30.66;27.60
75497;BME280;64074;47.540;19.072;2023-07-09T10:31:14;101000.28;;;30.46;25.40
75497;BME280;64074;47.540;19.072;2023-07-09T10:40:53;101005.13;;;31.14;25.07
75497;BME280;64074;47.540;19.072;2023-07-09T10:44:02;101004.75;;;31.12;25.14
75497;BME280;64074;47.540;19.072;2023-07-09T10:47:41;100994.28;;;31.46;24.78
75497;BME280;64074;47.540;19.072;2023-07-09T10:50:53;100991.72;;;31.59;24.75
75497;BME280;64074;47.540;19.072;2023-07-09T11:01:03;100985.50;;;31.75;22.88
75497;BME280;64074;47.540;19.072;2023-07-09T11:07:35;100983.97;;;32.17;22.03
75497;BME280;64074;47.540;19.072;2023-07-09T11:10:50;100994.16;;;32.54;21.97
75497;BME280;64074;47.540;19.072;2023-07-09T11:13:59;100996.53;;;32.56;21.09
75497;BME280;64074;47.540;19.072;2023-07-09T11:17:04;100981.41;;;32.69;22.39
75497;BME280;64074;47.540;19.072;2023-07-09T11:20:20;100984.88;;;32.77;22.64
75497;BME280;64074;47.540;19.072;2023-07-09T11:23:24;100973.91;;;32.20;22.48
75497;BME280;64074;47.540;19.072;2023-07-09T11:26:30;100973.13;;;32.62;22.08
75497;BME280;64074;47.540;19.072;2023-07-09T11:29:46;100981.06;;;32.48;22.17
75497;BME280;64074;47.540;19.072;2023-07-09T11:32:56;100967.97;;;33.00;20.95
75497;BME280;64074;47.540;19.072;2023-07-09T11:36:28;100973.63;;;33.17;20.92
75497;BME280;64074;47.540;19.072;2023-07-09T11:39:43;100957.50;;;33.89;21.24
75497;BME280;64074;47.540;19.072;2023-07-09T11:42:50;100961.44;;;33.59;20.86
75497;BME280;64074;47.540;19.072;2023-07-09T11:46:00;100954.25;;;33.75;20.97
75497;BME280;64074;47.540;19.072;2023-07-09T11:49:08;100951.00;;;33.92;21.13
75497;BME280;64074;47.540;19.072;2023-07-09T11:52:12;100958.72;;;34.05;21.23
75497;BME280;64074;47.540;19.072;2023-07-09T11:55:29;100955.66;;;33.99;20.32
75497;BME280;64074;47.540;19.072;2023-07-09T11:58:34;100957.78;;;34.40;20.99
75497;BME280;64074;47.540;19.072;2023-07-09T12:01:44;100945.28;;;34.41;20.10
75497;BME280;64074;47.540;19.072;2023-07-09T12:04:50;100934.19;;;34.92;20.45
75497;BME280;64074;47.540;19.072;2023-07-09T12:07:57;100937.63;;;35.51;19.53
75497;BME280;64074;47.540;19.072;2023-07-09T12:11:02;100943.38;;;35.47;19.83
75497;BME280;64074;47.540;19.072;2023-07-09T12:14:11;100938.28;;;36.49;18.80
75497;BME280;64074;47.540;19.072;2023-07-09T12:17:16;100934.06;;;36.76;18.31
75497;BME280;64074;47.540;19.072;2023-07-09T12:20:20;100930.78;;;36.99;18.29
75497;BME280;64074;47.540;19.072;2023-07-09T12:23:27;100942.81;;;36.90;18.84
75497;BME280;64074;47.540;19.072;2023-07-09T12:26:33;100929.81;;;36.71;18.33
75497;BME280;64074;47.540;19.072;2023-07-09T12:29:36;100923.00;;;37.52;17.76
75497;BME280;64074;47.540;19.072;2023-07-09T12:32:50;100916.84;;;36.39;18.66
75497;BME280;64074;47.540;19.072;2023-07-09T12:36:00;100906.13;;;37.00;18.04
75497;BME280;64074;47.540;19.072;2023-07-09T12:39:04;100901.09;;;38.30;16.83
75497;BME280;64074;47.540;19.072;2023-07-09T12:42:16;100901.28;;;38.87;17.36
75497;BME280;64074;47.540;19.072;2023-07-09T12:45:20;100910.47;;;37.72;16.88
75497;BME280;64074;47.540;19.072;2023-07-09T12:48:26;100899.47;;;35.59;19.39
75497;BME280;64074;47.540;19.072;2023-07-09T12:51:30;100894.06;;;35.01;20.56
75497;BME280;64074;47.540;19.072;2023-07-09T12:54:34;100903.97;;;37.53;17.39
75497;BME280;64074;47.540;19.072;2023-07-09T12:57:37;100897.13;;;38.45;16.58
75497;BME280;64074;47.540;19.072;2023-07-09T13:00:40;100892.34;;;39.78;15.53
75497;BME280;64074;47.540;19.072;2023-07-09T13:03:54;100890.09;;;39.82;16.18
75497;BME280;64074;47.540;19.072;2023-07-09T13:06:57;100883.13;;;39.68;16.46
75497;BME280;64074;47.540;19.072;2023-07-09T13:10:29;100891.66;;;38.24;17.10
75497;BME280;64074;47.540;19.072;2023-07-09T13:13:33;100880.13;;;40.25;15.11
75497;BME280;64074;47.540;19.072;2023-07-09T13:16:40;100881.13;;;40.96;14.85
75497;BME280;64074;47.540;19.072;2023-07-09T13:19:47;100878.19;;;39.93;14.86
75497;BME280;64074;47.540;19.072;2023-07-09T13:22:54;100869.50;;;39.16;15.90
75497;BME280;64074;47.540;19.072;2023-07-09T13:25:58;100879.13;;;39.99;15.37
75497;BME280;64074;47.540;19.072;2023-07-09T13:29:01;100870.13;;;39.53;15.22
75497;BME280;64074;47.540;19.072;2023-07-09T13:32:12;100869.78;;;39.27;14.94
75497;BME280;64074;47.540;19.072;2023-07-09T13:35:17;100850.94;;;39.05;15.28
75497;BME280;64074;47.540;19.072;2023-07-09T13:38:22;100868.50;;;40.82;14.51
75497;BME280;64074;47.540;19.072;2023-07-09T13:41:26;100862.63;;;40.42;14.92
75497;BME280;64074;47.540;19.072;2023-07-09T13:44:30;100872.44;;;38.97;15.63
75497;BME280;64074;47.540;19.072;2023-07-09T13:47:35;100863.31;;;38.93;16.00
75497;BME280;64074;47.540;19.072;2023-07-09T13:50:38;100864.78;;;39.93;15.24
75497;BME280;64074;47.540;19.072;2023-07-09T13:53:42;100852.63;;;41.26;14.00
75497;BME280;64074;47.540;19.072;2023-07-09T13:56:45;100851.69;;;41.95;14.08
75497;BME280;64074;47.540;19.072;2023-07-09T13:59:51;100860.47;;;41.92;13.50
75497;BME280;64074;47.540;19.072;2023-07-09T14:02:54;100860.84;;;41.79;13.92
75497;BME280;64074;47.540;19.072;2023-07-09T14:05:58;100855.19;;;41.24;14.17
75497;BME280;64074;47.540;19.072;2023-07-09T14:09:01;100855.66;;;40.72;14.82
75497;BME280;64074;47.540;19.072;2023-07-09T14:12:08;100859.50;;;42.21;13.76
75497;BME280;64074;47.540;19.072;2023-07-09T14:15:20;100850.38;;;40.50;14.64
75497;BME280;64074;47.540;19.072;2023-07-09T14:18:24;100847.81;;;40.52;14.93
75497;BME280;64074;47.540;19.072;2023-07-09T14:21:27;100854.22;;;40.09;15.02
75497;BME280;64074;47.540;19.072;2023-07-09T14:24:30;100843.81;;;39.91;15.44
75497;BME280;64074;47.540;19.072;2023-07-09T14:27:33;100851.25;;;36.66;18.18
75497;BME280;64074;47.540;19.072;2023-07-09T14:30:37;100851.06;;;37.22;17.49
75497;BME280;64074;47.540;19.072;2023-07-09T14:33:40;100840.19;;;36.50;18.65
75497;BME280;64074;47.540;19.072;2023-07-09T14:36:43;100854.59;;;36.21;18.80
75497;BME280;64074;47.540;19.072;2023-07-09T14:39:46;100848.47;;;37.55;17.59
75497;BME280;64074;47.540;19.072;2023-07-09T14:42:50;100858.28;;;38.28;17.26
75497;BME280;64074;47.540;19.072;2023-07-09T14:45:54;100838.41;;;37.54;17.11
75497;BME280;64074;47.540;19.072;2023-07-09T14:48:58;100847.88;;;38.43;16.62
75497;BME280;64074;47.540;19.072;2023-07-09T14:52:01;100840.72;;;40.33;15.82
75497;BME280;64074;47.540;19.072;2023-07-09T14:55:04;100842.66;;;38.41;17.14
75497;BME280;64074;47.540;19.072;2023-07-09T14:58:14;100842.81;;;37.46;17.62
75497;BME280;64074;47.540;19.072;2023-07-09T15:01:17;100837.47;;;37.57;17.89
75497;BME280;64074;47.540;19.072;2023-07-09T15:07:24;100824.34;;;36.09;19.81
75497;BME280;64074;47.540;19.072;2023-07-09T15:10:32;100828.66;;;35.79;20.18
75497;BME280;64074;47.540;19.072;2023-07-09T15:13:36;100832.81;;;35.27;19.97
75497;BME280;64074;47.540;19.072;2023-07-09T15:16:39;100827.63;;;35.12;19.97
75497;BME280;64074;47.540;19.072;2023-07-09T15:19:42;100825.19;;;35.02;20.61
75497;BME280;64074;47.540;19.072;2023-07-09T15:22:46;100827.38;;;35.32;20.87
75497;BME280;64074;47.540;19.072;2023-07-09T15:25:54;100814.69;;;34.77;21.18
75497;BME280;64074;47.540;19.072;2023-07-09T15:28:57;100826.25;;;34.53;21.83
75497;BME280;64074;47.540;19.072;2023-07-09T15:32:00;100817.66;;;34.44;20.85
75497;BME280;64074;47.540;19.072;2023-07-09T15:35:03;100821.88;;;34.65;20.91
75497;BME280;64074;47.540;19.072;2023-07-09T15:41:22;100824.19;;;34.41;21.36
75497;BME280;64074;47.540;19.072;2023-07-09T15:44:25;100817.06;;;34.24;21.95
75497;BME280;64074;47.540;19.072;2023-07-09T15:47:28;100815.53;;;34.07;22.63
75497;BME280;64074;47.540;19.072;2023-07-09T15:50:32;100823.69;;;33.72;22.90
75497;BME280;64074;47.540;19.072;2023-07-09T15:53:36;100817.97;;;33.76;23.01
75497;BME280;64074;47.540;19.072;2023-07-09T15:56:42;100833.88;;;33.82;22.91
75497;BME280;64074;47.540;19.072;2023-07-09T15:59:45;100805.22;;;33.87;22.32
75497;BME280;64074;47.540;19.072;2023-07-09T16:02:50;100806.72;;;33.76;22.19
75497;BME280;64074;47.540;19.072;2023-07-09T16:05:57;100811.31;;;34.28;22.18
75497;BME280;64074;47.540;19.072;2023-07-09T16:09:00;100801.94;;;34.18;21.60
75497;BME280;64074;47.540;19.072;2023-07-09T16:12:04;100797.47;;;33.91;22.26
75497;BME280;64074;47.540;19.072;2023-07-09T16:15:12;100801.47;;;33.61;22.60
75497;BME280;64074;47.540;19.072;2023-07-09T16:18:19;100803.22;;;33.72;22.83
75497;BME280;64074;47.540;19.072;2023-07-09T16:21:23;100815.09;;;33.30;22.68
75497;BME280;64074;47.540;19.072;2023-07-09T16:24:33;100801.03;;;33.14;22.86
75497;BME280;64074;47.540;19.072;2023-07-09T16:27:36;100807.13;;;33.29;22.52
75497;BME280;64074;47.540;19.072;2023-07-09T16:30:39;100803.16;;;33.26;22.60
75497;BME280;64074;47.540;19.072;2023-07-09T16:33:43;100806.88;;;33.23;22.78